createdAt,value
2023-10-29T00:02:13.007Z,5.68
2023-10-29T00:04:40.252Z,5.97
2023-10-29T00:07:07.632Z,5.50
2023-10-29T00:09:34.742Z,5.65
2023-10-29T00:12:11.094Z,6.13
2023-10-29T00:14:38.124Z,5.45
2023-10-29T00:17:05.421Z,6.05
2023-10-29T00:19:35.749Z,5.60
2023-10-29T00:22:18.090Z,5.80
2023-10-29T00:24:45.231Z,5.88
2023-10-29T00:27:13.668Z,5.43
2023-10-29T00:29:42.851Z,5.43
2023-10-29T00:32:10.237Z,5.90
2023-10-29T00:34:37.458Z,5.90
2023-10-29T00:37:04.882Z,5.13
2023-10-29T00:39:31.983Z,5.05
2023-10-29T00:41:59.308Z,5.00
2023-10-29T00:44:27.190Z,5.50
2023-10-29T00:46:55.771Z,5.50
2023-10-29T00:49:23.084Z,5.38
2023-10-29T00:51:50.471Z,5.38
2023-10-29T00:54:18.187Z,5.00
2023-10-29T00:56:45.994Z,5.25
2023-10-29T00:59:13.251Z,5.15
2023-10-29T01:01:40.485Z,5.38
2023-10-29T01:04:08.111Z,5.82
2023-10-29T01:06:41.973Z,5.55
2023-10-29T01:09:10.141Z,5.85
2023-10-29T01:11:37.396Z,5.40
2023-10-29T01:14:04.584Z,5.70
2023-10-29T01:16:31.857Z,6.18
2023-10-29T01:18:59.573Z,6.72
2023-10-29T01:21:28.573Z,5.18
2023-10-29T01:23:55.654Z,5.85
2023-10-29T01:26:23.002Z,5.80
2023-10-29T01:28:50.565Z,6.10
2023-10-29T01:31:17.863Z,5.93
2023-10-29T01:33:44.884Z,6.55
2023-10-29T01:36:12.112Z,6.32
2023-10-29T01:38:39.258Z,6.32
2023-10-29T01:41:06.569Z,6.40
2023-10-29T01:43:33.616Z,6.43
2023-10-29T01:46:00.817Z,6.03
2023-10-29T01:48:28.552Z,6.68
2023-10-29T01:50:57.170Z,6.53
2023-10-29T01:53:24.273Z,7.35
2023-10-29T01:55:52.565Z,7.03
2023-10-29T01:58:19.649Z,7.45
2023-10-29T02:00:46.893Z,8.00
2023-10-29T02:03:14.084Z,7.82
2023-10-29T02:05:41.636Z,6.82
2023-10-29T02:08:09.078Z,7.50
2023-10-29T02:10:36.257Z,7.43
2023-10-29T02:13:03.227Z,9.32
2023-10-29T02:15:30.459Z,8.98
2023-10-29T02:17:57.518Z,8.77
2023-10-29T02:20:24.824Z,8.73
2023-10-29T02:22:51.875Z,7.88
2023-10-29T02:25:19.361Z,8.50
2023-10-29T02:27:46.380Z,8.93
2023-10-29T02:30:13.948Z,10.10
2023-10-29T02:32:41.019Z,9.18
2023-10-29T02:35:09.514Z,9.75
2023-10-29T02:37:36.549Z,9.05
2023-10-29T02:40:04.856Z,9.73
2023-10-29T02:42:31.876Z,9.38
2023-10-29T02:45:00.142Z,9.73
2023-10-29T02:47:27.223Z,11.00
2023-10-29T02:49:54.502Z,10.88
2023-10-29T02:52:21.540Z,9.90
2023-10-29T02:54:49.770Z,9.77
2023-10-29T02:57:16.827Z,9.60
2023-10-29T02:59:44.299Z,10.07
2023-10-29T03:02:11.349Z,9.82
2023-10-29T03:04:38.612Z,8.60
2023-10-29T03:07:05.538Z,9.00
2023-10-29T03:09:32.805Z,9.77
2023-10-29T03:11:59.900Z,8.43
2023-10-29T03:14:27.253Z,8.85
2023-10-29T03:16:54.282Z,9.35
2023-10-29T03:19:21.616Z,10.80
2023-10-29T03:21:50.362Z,8.82
2023-10-29T03:24:18.596Z,9.25
2023-10-29T03:26:45.723Z,9.13
2023-10-29T03:29:12.981Z,9.65
2023-10-29T03:31:40.114Z,9.50
2023-10-29T03:34:09.178Z,10.93
2023-10-29T03:36:36.207Z,10.00
2023-10-29T03:39:04.323Z,10.68
2023-10-29T03:41:31.495Z,9.98
2023-10-29T03:43:58.980Z,10.30
2023-10-29T03:46:26.099Z,10.43
2023-10-29T03:48:54.107Z,10.77
2023-10-29T03:51:21.278Z,10.23
2023-10-29T03:53:48.614Z,10.50
2023-10-29T03:56:15.665Z,10.63
2023-10-29T03:58:42.966Z,10.32
2023-10-29T04:01:13.861Z,9.73
2023-10-29T04:03:42.104Z,11.15
2023-10-29T04:06:12.727Z,10.45
2023-10-29T04:08:40.550Z,9.73
2023-10-29T04:11:07.518Z,10.68
2023-10-29T04:13:34.848Z,10.18
2023-10-29T04:16:02.060Z,10.00
2023-10-29T04:18:32.760Z,10.20
2023-10-29T04:21:02.548Z,9.88
2023-10-29T04:23:29.829Z,9.65
2023-10-29T04:25:56.906Z,10.90
2023-10-29T04:28:24.110Z,10.23
2023-10-29T04:30:51.128Z,9.75
2023-10-29T04:33:18.601Z,10.52
2023-10-29T04:35:45.770Z,10.23
2023-10-29T04:38:13.749Z,10.65
2023-10-29T04:40:40.766Z,10.20
2023-10-29T04:43:08.065Z,10.18
2023-10-29T04:45:35.094Z,10.68
2023-10-29T04:48:02.369Z,11.10
2023-10-29T04:50:31.623Z,10.10
2023-10-29T04:52:59.460Z,11.30
2023-10-29T04:55:28.133Z,11.40
2023-10-29T04:57:55.392Z,10.35
2023-10-29T05:00:22.436Z,9.30
2023-10-29T05:02:49.807Z,10.38
2023-10-29T05:05:16.930Z,10.25
2023-10-29T05:07:46.197Z,11.38
2023-10-29T05:10:14.645Z,9.77
2023-10-29T05:12:42.293Z,10.15
2023-10-29T05:15:09.853Z,10.00
2023-10-29T05:17:37.313Z,10.02
2023-10-29T05:20:04.588Z,10.48
2023-10-29T05:22:31.817Z,10.20
2023-10-29T05:24:58.785Z,10.48
2023-10-29T05:27:26.088Z,9.50
2023-10-29T05:29:52.982Z,8.88
2023-10-29T05:32:20.968Z,9.95
2023-10-29T05:34:48.059Z,9.13
2023-10-29T05:37:15.505Z,9.45
2023-10-29T05:39:43.162Z,9.80
2023-10-29T05:42:11.223Z,9.13
2023-10-29T05:44:38.161Z,9.73
2023-10-29T05:47:05.677Z,8.85
2023-10-29T05:49:32.661Z,10.30
2023-10-29T05:52:00.025Z,9.50
2023-10-29T05:54:27.096Z,9.45
2023-10-29T05:56:54.450Z,9.57
2023-10-29T05:59:21.884Z,10.50
2023-10-29T06:01:49.252Z,10.30
2023-10-29T06:04:16.364Z,9.23
2023-10-29T06:06:43.769Z,9.85
2023-10-29T06:09:23.223Z,9.93
2023-10-29T06:11:51.626Z,10.25
2023-10-29T06:14:18.586Z,9.68
2023-10-29T06:16:46.289Z,9.80
2023-10-29T06:19:13.212Z,8.15
2023-10-29T06:21:41.128Z,8.15
2023-10-29T06:24:08.303Z,8.15
2023-10-29T06:26:36.071Z,8.43
2023-10-29T06:29:03.018Z,8.60
2023-10-29T06:31:30.731Z,7.82
2023-10-29T06:33:57.713Z,8.52
2023-10-29T06:36:25.120Z,8.73
2023-10-29T06:38:53.010Z,8.50
2023-10-29T06:41:20.537Z,8.40
2023-10-29T06:43:47.977Z,9.02
2023-10-29T06:46:18.584Z,8.68
2023-10-29T06:48:45.707Z,8.15
2023-10-29T06:51:12.979Z,8.73
2023-10-29T06:53:40.108Z,8.35
2023-10-29T06:56:07.806Z,38.60
2023-10-29T06:58:34.953Z,11.57
2023-10-29T07:01:09.974Z,10.43
2023-10-29T07:03:39.036Z,9.73
2023-10-29T07:06:08.294Z,17.77
2023-10-29T07:08:36.231Z,56.67
2023-10-29T07:11:04.559Z,45.55
2023-10-29T07:13:32.323Z,26.88
2023-10-29T07:16:04.122Z,144.77
2023-10-29T07:18:31.677Z,41.95
2023-10-29T07:20:59.153Z,119.35
2023-10-29T07:23:26.395Z,58.00
2023-10-29T07:25:53.938Z,36.28
2023-10-29T07:28:20.979Z,19.38
2023-10-29T07:30:48.758Z,38.13
2023-10-29T07:33:15.857Z,115.53
2023-10-29T07:35:43.277Z,45.25
2023-10-29T07:38:10.484Z,31.23
2023-10-29T07:40:37.726Z,34.90
2023-10-29T07:43:05.010Z,31.13
2023-10-29T07:45:32.626Z,16.85
2023-10-29T07:48:00.400Z,21.80
2023-10-29T07:50:28.058Z,165.77
2023-10-29T07:52:54.995Z,82.75
2023-10-29T07:55:22.383Z,55.72
2023-10-29T07:57:49.673Z,27.35
2023-10-29T08:00:17.343Z,17.90
2023-10-29T08:02:46.483Z,14.50
2023-10-29T08:05:14.052Z,20.80
2023-10-29T08:07:41.606Z,77.68
2023-10-29T08:10:10.430Z,36.10
2023-10-29T08:12:37.707Z,15.68
2023-10-29T08:15:05.436Z,20.70
2023-10-29T08:17:32.547Z,21.83
2023-10-29T08:20:00.050Z,15.93
2023-10-29T08:22:27.616Z,11.55
2023-10-29T08:24:56.086Z,47.38
2023-10-29T08:27:23.081Z,31.50
2023-10-29T08:29:50.974Z,15.05
2023-10-29T08:32:18.888Z,12.57
2023-10-29T08:34:46.536Z,11.15
2023-10-29T08:37:13.978Z,9.27
2023-10-29T08:39:41.594Z,10.40
2023-10-29T08:42:08.887Z,10.27
2023-10-29T08:44:37.039Z,31.38
2023-10-29T08:47:04.484Z,9.88
2023-10-29T08:49:31.981Z,8.27
2023-10-29T08:51:58.972Z,9.65
2023-10-29T08:54:26.416Z,12.80
2023-10-29T08:56:53.398Z,11.70
2023-10-29T08:59:21.187Z,7.70
2023-10-29T09:01:48.367Z,9.63
2023-10-29T09:04:16.343Z,10.65
2023-10-29T09:06:44.613Z,11.73
2023-10-29T09:09:13.472Z,11.85
2023-10-29T09:11:40.952Z,7.97
2023-10-29T09:14:10.390Z,8.88
2023-10-29T09:16:37.512Z,7.50
2023-10-29T09:19:04.734Z,9.93
2023-10-29T09:21:31.787Z,10.15
2023-10-29T09:23:59.126Z,7.15
2023-10-29T09:26:26.236Z,6.78
2023-10-29T09:28:53.492Z,5.70
2023-10-29T09:31:20.644Z,6.03
2023-10-29T09:33:48.382Z,6.88
2023-10-29T09:36:15.542Z,5.22
2023-10-29T09:38:43.251Z,6.13
2023-10-29T09:41:10.545Z,7.45
2023-10-29T09:43:42.401Z,5.20
2023-10-29T09:46:11.452Z,6.50
2023-10-29T09:48:39.605Z,4.22
2023-10-29T09:51:07.836Z,3.88
2023-10-29T09:53:37.469Z,4.45
2023-10-29T09:56:11.429Z,3.80
2023-10-29T09:58:40.039Z,4.32
2023-10-29T10:01:07.203Z,4.22
2023-10-29T10:03:34.662Z,4.53
2023-10-29T10:06:01.829Z,3.90
2023-10-29T10:08:30.981Z,3.80
2023-10-29T10:10:59.845Z,3.10
2023-10-29T10:13:38.110Z,3.83
2023-10-29T10:16:10.309Z,3.90
2023-10-29T10:18:51.920Z,4.43
2023-10-29T10:21:21.542Z,3.83
2023-10-29T10:23:53.973Z,3.03
2023-10-29T10:26:38.069Z,2.80
2023-10-29T10:29:08.268Z,3.38
2023-10-29T10:31:37.112Z,2.97
2023-10-29T10:34:15.380Z,2.65
2023-10-29T10:36:43.953Z,2.78
2023-10-29T10:39:12.518Z,12.68
2023-10-29T10:41:43.189Z,7.75
2023-10-29T10:44:15.711Z,4.05
2023-10-29T10:46:53.233Z,4.05
2023-10-29T10:49:21.091Z,3.08
2023-10-29T10:51:50.199Z,3.30
2023-10-29T10:54:20.741Z,2.60
2023-10-29T10:56:49.258Z,2.38
2023-10-29T10:59:16.994Z,2.20
2023-10-29T11:01:44.098Z,2.03
2023-10-29T11:04:11.667Z,2.05
2023-10-29T11:06:40.190Z,2.22
2023-10-29T11:09:15.495Z,2.42
2023-10-29T11:11:55.228Z,1.85
2023-10-29T11:14:24.230Z,3.28
2023-10-29T11:16:57.487Z,1.90
2023-10-29T11:19:45.507Z,1.70
2023-10-29T11:22:23.327Z,2.05
2023-10-29T11:25:16.980Z,1.83
2023-10-29T11:27:49.836Z,1.80
2023-10-29T11:30:19.418Z,1.77
2023-10-29T11:32:47.492Z,1.80
2023-10-29T11:35:22.551Z,1.90
2023-10-29T11:37:51.727Z,3.50
2023-10-29T11:40:25.268Z,2.88
2023-10-29T11:42:56.092Z,2.95
2023-10-29T11:45:29.531Z,14.52
2023-10-29T11:48:10.111Z,4.32
2023-10-29T11:50:37.984Z,2.60
2023-10-29T11:53:05.065Z,1.67
2023-10-29T11:55:53.085Z,2.00
2023-10-29T11:58:23.379Z,1.60
2023-10-29T12:00:51.100Z,2.22
2023-10-29T12:03:22.231Z,1.90
2023-10-29T12:05:57.003Z,1.30
2023-10-29T12:08:24.643Z,1.17
2023-10-29T12:10:53.515Z,1.10
2023-10-29T12:13:20.697Z,1.23
2023-10-29T12:16:01.635Z,1.45
2023-10-29T12:18:29.007Z,2.20
2023-10-29T12:21:10.756Z,3.70
2023-10-29T12:23:38.920Z,2.40
2023-10-29T12:26:09.738Z,3.38
2023-10-29T12:28:37.689Z,2.00
2023-10-29T12:31:08.500Z,1.75
2023-10-29T12:33:37.382Z,1.10
2023-10-29T12:36:15.275Z,1.70
2023-10-29T12:38:42.866Z,0.93
2023-10-29T12:41:21.949Z,0.98
2023-10-29T12:43:53.390Z,1.20
2023-10-29T12:46:22.814Z,1.70
2023-10-29T12:49:00.777Z,1.80
2023-10-29T12:51:33.537Z,2.40
2023-10-29T12:54:20.700Z,1.75
2023-10-29T12:56:51.941Z,1.33
2023-10-29T12:59:39.720Z,3.25
2023-10-29T13:02:07.835Z,1.17
2023-10-29T13:04:36.646Z,0.90
2023-10-29T13:07:12.503Z,0.70
2023-10-29T13:09:40.318Z,1.10
2023-10-29T13:12:09.369Z,0.80
2023-10-29T13:14:37.688Z,14.10
2023-10-29T13:17:05.906Z,4.10
2023-10-29T13:19:33.062Z,1.33
2023-10-29T13:22:00.638Z,1.63
2023-10-29T13:24:27.714Z,1.67
2023-10-29T13:26:55.316Z,1.27
2023-10-29T13:29:22.597Z,1.00
2023-10-29T13:31:50.213Z,1.10
2023-10-29T13:34:17.306Z,0.80
2023-10-29T13:36:45.155Z,1.05
2023-10-29T13:39:12.600Z,1.17
2023-10-29T13:41:40.239Z,1.25
2023-10-29T13:44:07.830Z,0.90
2023-10-29T13:46:35.384Z,1.23
2023-10-29T13:49:03.949Z,0.85
2023-10-29T13:51:31.319Z,0.90
2023-10-29T13:53:58.623Z,1.00
2023-10-29T13:56:26.054Z,0.65
2023-10-29T13:58:52.983Z,0.90
2023-10-29T14:01:21.861Z,0.93
2023-10-29T14:03:50.414Z,1.13
2023-10-29T14:06:18.145Z,0.95
2023-10-29T14:08:45.991Z,0.90
2023-10-29T14:11:15.213Z,0.98
2023-10-29T14:13:46.439Z,0.93
2023-10-29T14:16:15.389Z,0.90
2023-10-29T14:18:44.151Z,0.90
2023-10-29T14:21:12.352Z,0.75
2023-10-29T14:23:39.425Z,1.02
2023-10-29T14:26:06.735Z,0.82
2023-10-29T14:28:33.882Z,4.20
2023-10-29T14:31:01.319Z,120.35
2023-10-29T14:33:28.602Z,33.78
2023-10-29T14:35:59.721Z,9.45
2023-10-29T14:38:28.659Z,7.53
2023-10-29T14:40:57.146Z,2.88
2023-10-29T14:43:24.460Z,2.85
2023-10-29T14:45:52.932Z,1.80
2023-10-29T14:48:20.956Z,1.23
2023-10-29T14:50:49.657Z,1.40
2023-10-29T14:53:16.879Z,1.52
2023-10-29T14:55:48.021Z,1.50
2023-10-29T14:58:16.057Z,1.52
2023-10-29T15:00:44.426Z,29.58
2023-10-29T15:03:12.779Z,265.13
2023-10-29T15:05:40.637Z,59.33
2023-10-29T15:08:07.953Z,12.02
2023-10-29T15:10:35.361Z,3.17
2023-10-29T15:13:02.431Z,1.42
2023-10-29T15:15:31.862Z,1.40
2023-10-29T15:17:59.385Z,1.33
2023-10-29T15:20:28.153Z,1.42
2023-10-29T15:22:55.841Z,2.00
2023-10-29T15:25:23.346Z,3.40
2023-10-29T15:27:50.377Z,3.30
2023-10-29T15:30:17.797Z,8.85
2023-10-29T15:32:44.871Z,9.65
2023-10-29T15:35:12.284Z,8.68
2023-10-29T15:37:39.683Z,3.05
2023-10-29T15:40:07.969Z,1.38
2023-10-29T15:42:35.071Z,1.35
2023-10-29T15:45:02.460Z,7.22
2023-10-29T15:47:29.545Z,44.03
2023-10-29T15:49:57.724Z,38.10
2023-10-29T15:52:24.725Z,19.95
2023-10-29T15:54:52.144Z,15.35
2023-10-29T15:57:19.450Z,15.18
2023-10-29T15:59:46.877Z,9.48
2023-10-29T16:02:13.847Z,514.33
2023-10-29T16:04:41.250Z,673.40
2023-10-29T16:07:09.502Z,465.25
2023-10-29T16:09:38.203Z,389.58
2023-10-29T16:12:09.422Z,94.05
2023-10-29T16:14:37.055Z,48.53
2023-10-29T16:17:04.554Z,34.47
2023-10-29T16:19:32.301Z,33.65
2023-10-29T16:21:59.694Z,36.10
2023-10-29T16:24:29.451Z,36.78
2023-10-29T16:26:58.096Z,40.20
2023-10-29T16:29:25.686Z,45.13
2023-10-29T16:31:52.771Z,36.00
2023-10-29T16:34:20.600Z,27.35
2023-10-29T16:36:47.797Z,29.73
2023-10-29T16:39:15.100Z,28.25
2023-10-29T16:41:42.185Z,42.53
2023-10-29T16:44:09.422Z,52.45
2023-10-29T16:46:36.505Z,83.95
2023-10-29T16:49:04.002Z,76.65
2023-10-29T16:51:31.714Z,42.38
2023-10-29T16:53:59.453Z,38.10
2023-10-29T16:56:26.810Z,26.52
2023-10-29T16:58:54.152Z,25.77
2023-10-29T17:01:21.481Z,28.35
2023-10-29T17:03:50.180Z,64.82
2023-10-29T17:06:18.608Z,26.42
2023-10-29T17:08:46.211Z,27.33
2023-10-29T17:11:13.148Z,29.85
2023-10-29T17:13:40.419Z,19.08
2023-10-29T17:16:07.616Z,19.35
2023-10-29T17:18:35.674Z,27.00
2023-10-29T17:21:03.354Z,58.53
2023-10-29T17:23:30.911Z,26.80
2023-10-29T17:25:58.139Z,29.52
2023-10-29T17:28:25.749Z,30.00
2023-10-29T17:30:52.658Z,16.98
2023-10-29T17:33:20.196Z,42.42
2023-10-29T17:35:47.141Z,28.90
2023-10-29T17:38:14.486Z,19.42
2023-10-29T17:40:41.458Z,53.70
2023-10-29T17:43:10.337Z,33.53
2023-10-29T17:45:40.158Z,23.60
2023-10-29T17:48:07.808Z,26.15
2023-10-29T17:50:34.940Z,21.50
2023-10-29T17:53:03.191Z,15.77
2023-10-29T17:55:30.249Z,21.90
2023-10-29T17:58:00.764Z,41.20
2023-10-29T18:00:28.185Z,22.90
2023-10-29T18:02:55.944Z,26.65
2023-10-29T18:05:24.259Z,11.05
2023-10-29T18:07:51.654Z,14.15
2023-10-29T18:10:18.741Z,10.60
2023-10-29T18:12:46.045Z,12.25
2023-10-29T18:15:13.100Z,32.47
2023-10-29T18:17:40.438Z,12.80
2023-10-29T18:20:08.181Z,11.70
2023-10-29T18:22:35.476Z,10.40
2023-10-29T18:25:02.573Z,5.88
2023-10-29T18:27:29.926Z,7.07
2023-10-29T18:29:57.054Z,6.00
2023-10-29T18:32:24.412Z,12.40
2023-10-29T18:34:51.619Z,6.05
2023-10-29T18:37:18.942Z,6.88
2023-10-29T18:39:45.884Z,5.95
2023-10-29T18:42:14.667Z,4.80
2023-10-29T18:44:41.741Z,7.05
2023-10-29T18:47:10.373Z,5.45
2023-10-29T18:49:37.644Z,7.15
2023-10-29T18:52:05.593Z,5.15
2023-10-29T18:54:34.210Z,6.93
2023-10-29T18:57:03.360Z,6.80
2023-10-29T18:59:30.414Z,7.57
2023-10-29T19:01:57.675Z,7.25
2023-10-29T19:04:25.566Z,7.20
2023-10-29T19:06:53.267Z,9.43
2023-10-29T19:09:21.606Z,9.00
2023-10-29T19:11:48.864Z,10.98
2023-10-29T19:14:15.774Z,10.70
2023-10-29T19:16:42.988Z,7.68
2023-10-29T19:19:11.289Z,8.68
2023-10-29T19:21:38.621Z,5.47
2023-10-29T19:24:06.035Z,7.50
2023-10-29T19:26:33.444Z,8.18
2023-10-29T19:29:00.352Z,12.15
2023-10-29T19:31:28.149Z,7.55
2023-10-29T19:33:55.590Z,7.25
2023-10-29T19:36:23.333Z,6.05
2023-10-29T19:38:50.382Z,6.53
2023-10-29T19:41:17.662Z,7.07
2023-10-29T19:43:44.906Z,6.43
2023-10-29T19:46:12.263Z,15.32
2023-10-29T19:48:39.338Z,6.72
2023-10-29T19:51:08.811Z,6.43
2023-10-29T19:53:36.686Z,6.60
2023-10-29T19:56:12.665Z,5.93
2023-10-29T19:58:40.462Z,6.60
2023-10-29T20:01:10.327Z,6.32
2023-10-29T20:03:37.881Z,33.33
2023-10-29T20:06:09.417Z,9.95
2023-10-29T20:08:37.575Z,9.73
2023-10-29T20:11:12.665Z,128.15
2023-10-29T20:13:41.029Z,442.95
2023-10-29T20:16:08.754Z,30.63
2023-10-29T20:18:36.654Z,15.68
2023-10-29T20:21:05.359Z,9.82
2023-10-29T20:23:32.675Z,11.88
2023-10-29T20:26:04.315Z,11.30
2023-10-29T20:28:31.844Z,7.75
2023-10-29T20:30:58.789Z,10.25
2023-10-29T20:33:26.217Z,18.02
2023-10-29T20:35:53.177Z,11.13
2023-10-29T20:38:20.593Z,8.88
2023-10-29T20:40:47.599Z,6.43
2023-10-29T20:43:14.991Z,7.03
2023-10-29T20:45:41.919Z,7.35
2023-10-29T20:48:09.340Z,6.03
2023-10-29T20:50:37.266Z,6.30
2023-10-29T20:53:04.535Z,8.30
2023-10-29T20:55:31.828Z,8.80
2023-10-29T20:57:59.879Z,7.32
2023-10-29T21:00:30.232Z,49.08
2023-10-29T21:02:59.662Z,38.63
2023-10-29T21:05:28.555Z,24.48
2023-10-29T21:07:56.097Z,15.35
2023-10-29T21:10:23.063Z,14.85
2023-10-29T21:12:51.528Z,9.10
2023-10-29T21:15:20.874Z,9.80
2023-10-29T21:17:48.959Z,9.68
2023-10-29T21:20:15.999Z,7.95
2023-10-29T21:22:43.380Z,7.32
2023-10-29T21:25:10.777Z,6.00
2023-10-29T21:27:38.272Z,9.88
2023-10-29T21:30:08.123Z,10.68
2023-10-29T21:32:35.570Z,8.00
2023-10-29T21:35:02.629Z,7.07
2023-10-29T21:37:30.033Z,6.60
2023-10-29T21:39:57.012Z,5.95
2023-10-29T21:42:24.486Z,6.32
2023-10-29T21:44:51.485Z,11.95
2023-10-29T21:47:18.816Z,5.82
2023-10-29T21:49:51.136Z,7.15
2023-10-29T21:52:18.394Z,7.47
2023-10-29T21:54:51.106Z,6.25
2023-10-29T21:57:19.071Z,5.13
2023-10-29T21:59:48.704Z,4.80
2023-10-29T22:02:16.266Z,8.32
2023-10-29T22:04:43.445Z,6.13
2023-10-29T22:07:10.823Z,6.38
2023-10-29T22:09:37.848Z,5.63
2023-10-29T22:12:05.510Z,5.22
2023-10-29T22:14:32.508Z,5.95
2023-10-29T22:16:59.796Z,5.55
2023-10-29T22:19:26.693Z,5.68
2023-10-29T22:21:54.061Z,8.02
2023-10-29T22:24:21.211Z,8.80
2023-10-29T22:26:48.567Z,6.82
2023-10-29T22:29:15.560Z,5.90
2023-10-29T22:31:42.908Z,6.05
2023-10-29T22:34:09.816Z,5.10
2023-10-29T22:36:37.211Z,5.10
2023-10-29T22:39:04.362Z,10.73
2023-10-29T22:41:31.920Z,6.63
2023-10-29T22:43:58.789Z,16.45
2023-10-29T22:46:26.123Z,10.88
2023-10-29T22:48:53.623Z,9.98
2023-10-29T22:51:21.697Z,6.97
2023-10-29T22:53:48.767Z,5.97
2023-10-29T22:56:16.176Z,9.77
2023-10-29T22:58:43.177Z,6.05
2023-10-29T23:01:10.617Z,5.43
2023-10-29T23:03:37.918Z,4.28
2023-10-29T23:06:06.156Z,5.45
2023-10-29T23:08:34.544Z,5.00
2023-10-29T23:11:02.061Z,5.40
2023-10-29T23:13:29.077Z,5.78
2023-10-29T23:15:56.915Z,7.25
2023-10-29T23:18:25.682Z,6.10
2023-10-29T23:20:53.655Z,4.95
2023-10-29T23:23:20.767Z,5.10
2023-10-29T23:25:48.127Z,4.93
2023-10-29T23:28:30.339Z,4.63
2023-10-29T23:31:02.082Z,4.32
2023-10-29T23:33:29.509Z,6.88
2023-10-29T23:35:56.932Z,5.20
2023-10-29T23:38:23.872Z,4.65
2023-10-29T23:40:51.286Z,4.38
2023-10-29T23:43:18.260Z,3.88
2023-10-29T23:45:45.653Z,4.10
2023-10-29T23:48:13.181Z,4.93
2023-10-29T23:50:40.503Z,5.38
2023-10-29T23:53:07.629Z,4.63
2023-10-29T23:55:34.957Z,4.63
2023-10-29T23:58:01.927Z,4.60
